createdAt,value
2019-04-03T00:02:07.280Z,54.20
2019-04-03T00:04:37.271Z,54.90
2019-04-03T00:07:07.518Z,54.40
2019-04-03T00:09:37.442Z,54.60
2019-04-03T00:12:10.070Z,54.70
2019-04-03T00:14:39.028Z,55.30
2019-04-03T00:17:08.870Z,55.20
2019-04-03T00:19:38.887Z,55.60
2019-04-03T00:22:08.723Z,55.60
2019-04-03T00:24:38.628Z,55.80
2019-04-03T00:27:08.571Z,56.30
2019-04-03T00:29:38.486Z,55.80
2019-04-03T00:32:08.353Z,56.40
2019-04-03T00:34:38.422Z,56.20
2019-04-03T00:37:08.267Z,56.30
2019-04-03T00:39:38.212Z,56.70
2019-04-03T00:42:08.135Z,56.80
2019-04-03T00:44:39.460Z,57.00
2019-04-03T00:47:09.424Z,57.20
2019-04-03T00:49:39.380Z,57.30
2019-04-03T00:52:13.212Z,57.40
2019-04-03T00:54:43.274Z,57.70
2019-04-03T00:57:13.255Z,58.00
2019-04-03T00:59:44.147Z,58.30
2019-04-03T01:02:16.255Z,58.30
2019-04-03T01:04:45.607Z,58.50
2019-04-03T01:07:15.732Z,58.80
2019-04-03T01:09:45.709Z,60.00
2019-04-03T01:12:15.633Z,60.00
2019-04-03T01:14:45.605Z,60.40
2019-04-03T01:17:15.549Z,60.50
2019-04-03T01:19:45.429Z,59.90
2019-04-03T01:22:15.715Z,60.30
2019-04-03T01:24:45.686Z,61.30
2019-04-03T01:27:15.535Z,63.10
2019-04-03T01:29:45.454Z,63.40
2019-04-03T01:32:15.999Z,62.10
2019-04-03T01:34:47.639Z,62.50
2019-04-03T01:37:19.128Z,64.00
2019-04-03T01:39:50.826Z,63.70
2019-04-03T01:42:22.202Z,64.50
2019-04-03T01:44:55.013Z,64.10
2019-04-03T01:47:24.264Z,65.60
2019-04-03T01:49:54.095Z,64.20
2019-04-03T01:52:23.945Z,65.10
2019-04-03T01:54:53.907Z,65.90
2019-04-03T01:57:26.247Z,64.90
2019-04-03T01:59:57.327Z,65.60
2019-04-03T02:02:27.454Z,64.80
2019-04-03T02:04:57.909Z,71.90
2019-04-03T02:07:27.840Z,67.10
2019-04-03T02:09:57.721Z,66.10
2019-04-03T02:12:32.930Z,68.50
2019-04-03T02:15:02.855Z,72.40
2019-04-03T02:17:34.362Z,70.40
2019-04-03T02:20:04.480Z,78.20
2019-04-03T02:22:34.374Z,69.30
2019-04-03T02:25:04.370Z,68.50
2019-04-03T02:27:34.259Z,68.80
2019-04-03T02:30:05.204Z,68.20
2019-04-03T02:32:35.181Z,68.80
2019-04-03T02:35:08.124Z,70.10
2019-04-03T02:37:37.159Z,70.20
2019-04-03T02:40:07.503Z,72.00
2019-04-03T02:42:40.553Z,75.50
2019-04-03T02:45:09.233Z,81.90
2019-04-03T02:47:39.118Z,81.00
2019-04-03T02:50:09.171Z,80.50
2019-04-03T02:52:39.383Z,78.00
2019-04-03T02:55:09.520Z,77.30
2019-04-03T02:57:39.440Z,83.50
2019-04-03T03:00:09.693Z,77.60
2019-04-03T03:02:39.841Z,79.60
2019-04-03T03:05:10.186Z,85.30
2019-04-03T03:07:41.488Z,82.80
2019-04-03T03:10:11.779Z,89.60
2019-04-03T03:12:41.901Z,88.40
2019-04-03T03:15:12.706Z,86.50
2019-04-03T03:17:43.154Z,90.80
2019-04-03T03:20:13.830Z,91.40
2019-04-03T03:22:44.924Z,91.00
2019-04-03T03:25:14.961Z,89.10
2019-04-03T03:27:45.320Z,92.30
2019-04-03T03:30:33.227Z,91.40
2019-04-03T03:32:47.372Z,91.10
2019-04-03T03:35:27.070Z,92.90
2019-04-03T03:37:50.759Z,95.30
2019-04-03T03:40:24.547Z,93.50
2019-04-03T03:42:55.173Z,94.10
2019-04-03T03:45:26.729Z,93.10
2019-04-03T03:47:57.033Z,95.10
2019-04-03T03:50:27.202Z,95.10
2019-04-03T03:52:59.756Z,93.80
2019-04-03T03:55:31.202Z,93.70
2019-04-03T03:58:01.966Z,93.40
2019-04-03T04:00:33.344Z,92.90
2019-04-03T04:03:03.593Z,94.60
2019-04-03T04:05:33.635Z,96.50
2019-04-03T04:08:08.835Z,95.00
2019-04-03T04:10:38.915Z,95.80
2019-04-03T04:13:13.134Z,95.60
2019-04-03T04:15:40.916Z,96.00
2019-04-03T04:18:13.780Z,95.60
2019-04-03T04:20:43.377Z,96.00
2019-04-03T04:23:13.344Z,95.70
2019-04-03T04:25:44.508Z,96.10
2019-04-03T04:28:14.430Z,98.20
2019-04-03T04:30:47.199Z,99.90
2019-04-03T04:33:17.794Z,99.10
2019-04-03T04:35:47.776Z,99.90
2019-04-03T04:38:17.611Z,98.00
2019-04-03T04:40:47.527Z,99.40
2019-04-03T04:43:17.416Z,99.90
2019-04-03T04:45:47.333Z,98.40
2019-04-03T04:48:20.350Z,99.90
2019-04-03T04:50:48.535Z,99.80
2019-04-03T04:53:18.389Z,99.90
2019-04-03T04:55:48.291Z,99.30
2019-04-03T04:58:18.138Z,99.90
2019-04-03T05:00:48.321Z,99.90
2019-04-03T05:03:18.055Z,99.90
2019-04-03T05:05:47.867Z,99.90
2019-04-03T05:08:18.026Z,99.90
2019-04-03T05:10:49.090Z,99.90
2019-04-03T05:13:19.317Z,99.90
2019-04-03T05:15:49.150Z,99.90
2019-04-03T05:18:18.932Z,99.90
2019-04-03T05:20:50.675Z,99.90
2019-04-03T05:23:20.516Z,99.90
2019-04-03T05:25:50.378Z,99.90
2019-04-03T05:28:20.285Z,99.90
2019-04-03T05:30:50.056Z,99.50
2019-04-03T05:33:19.804Z,99.90
2019-04-03T05:35:49.805Z,99.90
2019-04-03T05:38:21.802Z,99.90
2019-04-03T05:40:51.216Z,99.70
2019-04-03T05:43:21.415Z,99.90
2019-04-03T05:45:51.406Z,99.90
2019-04-03T05:48:21.478Z,99.90
2019-04-03T05:50:51.313Z,99.90
2019-04-03T05:53:21.037Z,99.90
2019-04-03T05:55:50.882Z,99.90
2019-04-03T05:58:20.811Z,99.90
2019-04-03T06:01:02.847Z,99.90
2019-04-03T06:03:37.526Z,99.90
2019-04-03T06:05:53.821Z,99.90
2019-04-03T06:08:23.635Z,99.90
2019-04-03T06:10:53.658Z,99.90
2019-04-03T06:13:23.571Z,99.40
2019-04-03T06:15:53.769Z,99.90
2019-04-03T06:18:26.113Z,99.90
2019-04-03T06:20:56.027Z,99.30
2019-04-03T06:23:25.764Z,99.90
2019-04-03T06:25:55.603Z,97.20
2019-04-03T06:28:25.619Z,98.90
2019-04-03T06:30:56.632Z,99.70
2019-04-03T06:33:27.548Z,99.90
2019-04-03T06:35:57.488Z,97.70
2019-04-03T06:38:27.278Z,99.80
2019-04-03T06:40:57.209Z,98.70
2019-04-03T06:43:29.510Z,96.20
2019-04-03T06:45:58.605Z,98.80
2019-04-03T06:48:28.534Z,99.50
2019-04-03T06:50:58.415Z,96.90
2019-04-03T06:53:28.815Z,96.50
2019-04-03T06:56:00.521Z,94.20
2019-04-03T06:58:37.983Z,93.10
2019-04-03T07:01:02.208Z,93.90
2019-04-03T07:03:33.699Z,92.50
2019-04-03T07:06:03.514Z,90.70
2019-04-03T07:08:36.144Z,88.50
2019-04-03T07:11:04.827Z,87.80
2019-04-03T07:13:34.536Z,89.40
2019-04-03T07:16:04.375Z,91.00
2019-04-03T07:18:36.074Z,88.90
2019-04-03T07:21:05.702Z,84.70
2019-04-03T07:23:35.845Z,89.50
2019-04-03T07:26:05.883Z,83.30
2019-04-03T07:28:35.748Z,82.40
2019-04-03T07:31:05.833Z,84.40
2019-04-03T07:33:35.656Z,81.50
2019-04-03T07:36:05.442Z,81.40
2019-04-03T07:38:35.474Z,85.10
2019-04-03T07:41:05.299Z,79.50
2019-04-03T07:43:35.239Z,79.00
2019-04-03T07:46:05.136Z,77.50
2019-04-03T07:48:35.817Z,77.60
2019-04-03T07:51:06.719Z,76.30
2019-04-03T07:53:36.737Z,78.00
2019-04-03T07:56:06.753Z,77.10
2019-04-03T07:58:36.608Z,75.40
2019-04-03T08:01:09.541Z,75.80
2019-04-03T08:03:38.231Z,73.60
2019-04-03T08:06:08.147Z,72.80
2019-04-03T08:08:38.193Z,73.50
2019-04-03T08:11:08.225Z,72.60
2019-04-03T08:13:38.503Z,71.40
2019-04-03T08:16:08.631Z,70.50
2019-04-03T08:18:38.768Z,70.30
2019-04-03T08:21:08.754Z,70.80
2019-04-03T08:23:38.588Z,68.90
2019-04-03T08:26:10.922Z,68.40
2019-04-03T08:28:39.801Z,67.00
2019-04-03T08:31:11.563Z,65.20
2019-04-03T08:33:41.146Z,63.50
2019-04-03T08:36:22.837Z,63.90
2019-04-03T08:38:44.034Z,61.80
2019-04-03T08:41:14.314Z,61.60
2019-04-03T08:43:44.592Z,61.50
2019-04-03T08:46:14.459Z,59.90
2019-04-03T08:48:46.705Z,59.80
2019-04-03T08:51:16.772Z,61.40
2019-04-03T08:53:46.560Z,60.20
2019-04-03T08:56:17.163Z,58.20
2019-04-03T08:58:48.126Z,60.90
2019-04-03T09:01:18.062Z,56.40
2019-04-03T09:03:47.971Z,56.80
2019-04-03T09:06:22.118Z,56.10
2019-04-03T09:08:50.968Z,53.10
2019-04-03T09:11:20.850Z,52.60
2019-04-03T09:13:50.607Z,54.60
2019-04-03T09:16:20.357Z,50.50
2019-04-03T09:18:50.183Z,51.20
2019-04-03T09:21:20.018Z,49.80
2019-04-03T09:23:49.907Z,50.00
2019-04-03T09:26:19.851Z,48.40
2019-04-03T09:28:49.896Z,48.20
2019-04-03T09:31:20.655Z,47.50
2019-04-03T09:33:50.725Z,46.80
2019-04-03T09:36:20.526Z,47.00
2019-04-03T09:38:50.506Z,46.10
2019-04-03T09:41:20.799Z,46.20
2019-04-03T09:43:51.930Z,46.00
2019-04-03T09:46:22.462Z,46.00
2019-04-03T09:48:52.485Z,47.30
2019-04-03T09:51:23.015Z,46.10
2019-04-03T09:53:53.046Z,46.10
2019-04-03T09:56:22.891Z,47.20
2019-04-03T09:58:55.479Z,47.00
2019-04-03T10:01:24.158Z,48.30
2019-04-03T10:03:55.401Z,45.50
2019-04-03T10:06:25.475Z,44.60
2019-04-03T10:08:55.263Z,46.00
2019-04-03T10:11:25.161Z,43.50
2019-04-03T10:13:57.066Z,43.30
2019-04-03T10:16:27.895Z,42.30
2019-04-03T10:18:57.941Z,41.90
2019-04-03T10:21:27.830Z,42.50
2019-04-03T10:23:59.484Z,43.40
2019-04-03T10:26:30.996Z,42.90
2019-04-03T10:29:00.558Z,43.30
2019-04-03T10:31:30.375Z,43.50
2019-04-03T10:34:02.348Z,43.20
2019-04-03T10:36:31.755Z,42.10
2019-04-03T10:39:01.623Z,41.80
2019-04-03T10:41:31.517Z,42.50
2019-04-03T10:44:01.541Z,41.80
2019-04-03T10:46:31.249Z,42.50
2019-04-03T10:49:01.302Z,43.30
2019-04-03T10:51:31.851Z,42.80
2019-04-03T10:54:02.189Z,43.50
2019-04-03T10:56:32.633Z,43.60
2019-04-03T10:59:10.344Z,42.60
2019-04-03T11:01:34.642Z,43.50
2019-04-03T11:04:04.586Z,43.10
2019-04-03T11:06:36.680Z,41.60
2019-04-03T11:09:09.264Z,41.10
2019-04-03T11:11:39.099Z,40.30
2019-04-03T11:14:08.903Z,40.00
2019-04-03T11:16:39.698Z,39.60
2019-04-03T11:19:09.554Z,40.50
2019-04-03T11:21:39.742Z,39.00
2019-04-03T11:24:10.176Z,39.20
2019-04-03T11:26:40.372Z,39.40
2019-04-03T11:29:10.844Z,38.00
2019-04-03T11:31:42.483Z,38.00
2019-04-03T11:34:15.192Z,38.40
2019-04-03T11:36:45.006Z,38.60
2019-04-03T11:39:16.232Z,39.00
2019-04-03T11:41:46.787Z,39.80
2019-04-03T11:44:16.736Z,39.40
2019-04-03T11:46:46.686Z,38.70
2019-04-03T11:49:17.734Z,38.90
2019-04-03T11:51:48.141Z,38.20
2019-04-03T11:54:18.592Z,38.70
2019-04-03T11:56:49.007Z,37.60
2019-04-03T11:59:18.978Z,37.60
2019-04-03T12:01:48.779Z,37.80
2019-04-03T12:04:18.670Z,37.80
2019-04-03T12:06:49.809Z,37.80
2019-04-03T12:09:19.972Z,38.50
2019-04-03T12:11:54.538Z,39.00
2019-04-03T12:14:23.783Z,39.90
2019-04-03T12:16:57.997Z,40.80
2019-04-03T12:19:27.713Z,40.70
2019-04-03T12:21:58.039Z,40.90
2019-04-03T12:24:28.412Z,41.20
2019-04-03T12:26:58.606Z,40.80
2019-04-03T12:29:28.838Z,41.70
2019-04-03T12:31:59.127Z,41.70
2019-04-03T12:34:28.929Z,42.20
2019-04-03T12:36:59.168Z,42.20
2019-04-03T12:39:29.700Z,42.40
2019-04-03T12:42:00.384Z,42.40
2019-04-03T12:44:34.536Z,42.60
2019-04-03T12:47:05.626Z,43.20
2019-04-03T12:49:38.108Z,42.90
2019-04-03T12:52:08.284Z,42.90
2019-04-03T12:54:40.218Z,43.00
2019-04-03T12:57:10.314Z,44.50
2019-04-03T12:59:40.779Z,43.90
2019-04-03T13:02:10.906Z,43.60
2019-04-03T13:04:40.948Z,43.80
2019-04-03T13:07:13.433Z,44.40
2019-04-03T13:09:44.552Z,44.60
2019-04-03T13:12:16.159Z,44.70
2019-04-03T13:14:48.850Z,44.40
2019-04-03T13:17:18.154Z,44.90
2019-04-03T13:19:48.051Z,44.90
2019-04-03T13:22:18.813Z,45.00
2019-04-03T13:24:49.248Z,45.20
2019-04-03T13:27:19.920Z,45.80
2019-04-03T13:29:50.237Z,45.30
2019-04-03T13:32:22.247Z,45.10
2019-04-03T13:34:51.995Z,45.40
2019-04-03T13:37:23.258Z,45.90
2019-04-03T13:39:53.383Z,45.50
2019-04-03T13:42:23.204Z,46.30
2019-04-03T13:44:53.073Z,45.60
2019-04-03T13:47:22.959Z,45.40
2019-04-03T13:49:53.021Z,45.50
2019-04-03T13:52:22.805Z,45.70
2019-04-03T13:54:57.076Z,45.70
2019-04-03T13:57:25.288Z,45.30
2019-04-03T13:59:59.701Z,46.10
2019-04-03T14:02:27.217Z,46.10
2019-04-03T14:04:58.549Z,45.50
2019-04-03T14:07:31.091Z,45.70
2019-04-03T14:10:00.184Z,45.50
2019-04-03T14:12:30.239Z,44.30
2019-04-03T14:15:04.349Z,46.10
2019-04-03T14:17:35.968Z,44.60
2019-04-03T14:20:06.515Z,44.70
2019-04-03T14:22:37.579Z,44.10
2019-04-03T14:25:17.991Z,44.70
2019-04-03T14:27:42.943Z,45.00
2019-04-03T14:30:15.668Z,44.90
2019-04-03T14:32:46.950Z,44.80
2019-04-03T14:35:44.493Z,45.20
2019-04-03T14:37:50.501Z,44.20
2019-04-03T14:40:20.414Z,44.60
2019-04-03T14:42:50.802Z,44.40
2019-04-03T14:45:22.678Z,44.50
2019-04-03T14:47:54.898Z,44.30
2019-04-03T14:50:24.733Z,44.20
2019-04-03T14:52:55.004Z,44.00
2019-04-03T14:55:26.656Z,44.90
2019-04-03T14:58:00.948Z,44.70
2019-04-03T15:00:32.449Z,45.00
2019-04-03T15:03:04.529Z,44.60
2019-04-03T15:05:39.283Z,45.80
2019-04-03T15:08:07.168Z,45.80
2019-04-03T15:10:37.189Z,45.80
2019-04-03T15:13:14.069Z,45.00
2019-04-03T15:15:42.527Z,44.60
2019-04-03T15:18:14.184Z,44.50
2019-04-03T15:20:47.140Z,44.10
2019-04-03T15:23:24.563Z,44.60
2019-04-03T15:26:04.386Z,44.50
2019-04-03T15:28:38.371Z,44.60
2019-04-03T15:31:14.319Z,44.80
2019-04-03T15:33:49.624Z,45.30
2019-04-03T15:36:21.743Z,45.00
2019-04-03T15:38:52.081Z,45.40
2019-04-03T15:41:22.023Z,46.60
2019-04-03T15:43:52.117Z,46.30
2019-04-03T15:46:22.301Z,45.50
2019-04-03T15:48:53.599Z,45.90
2019-04-03T15:51:23.689Z,45.80
2019-04-03T15:53:55.229Z,45.60
2019-04-03T15:56:26.787Z,45.20
2019-04-03T15:58:57.842Z,45.80
2019-04-03T16:01:28.790Z,46.90
2019-04-03T16:04:00.009Z,46.90
2019-04-03T16:06:34.779Z,46.30
2019-04-03T16:09:10.307Z,46.60
2019-04-03T16:11:46.038Z,45.80
2019-04-03T16:14:18.572Z,45.30
2019-04-03T16:16:51.285Z,44.80
2019-04-03T16:19:25.288Z,44.90
2019-04-03T16:21:57.677Z,44.80
2019-04-03T16:24:33.871Z,44.90
2019-04-03T16:27:07.329Z,45.10
2019-04-03T16:29:40.372Z,45.20
2019-04-03T16:32:11.522Z,44.80
2019-04-03T16:34:42.664Z,46.00
2019-04-03T16:37:15.550Z,46.40
2019-04-03T16:39:57.786Z,46.70
2019-04-03T16:42:32.164Z,47.00
2019-04-03T16:45:08.185Z,47.30
2019-04-03T16:47:37.835Z,47.30
2019-04-03T16:50:14.645Z,47.20
2019-04-03T16:52:47.454Z,46.70
2019-04-03T16:55:29.554Z,46.40
2019-04-03T16:58:04.475Z,45.60
2019-04-03T17:00:42.715Z,45.10
2019-04-03T17:03:15.970Z,44.70
2019-04-03T17:05:59.178Z,44.60
2019-04-03T17:08:40.926Z,44.50
2019-04-03T17:11:26.463Z,44.80
2019-04-03T17:14:10.262Z,45.10
2019-04-03T17:16:46.193Z,45.20
2019-04-03T17:19:35.022Z,45.60
2019-04-03T17:22:07.881Z,45.80
2019-04-03T17:24:49.354Z,46.00
2019-04-03T17:27:37.764Z,46.20
2019-04-03T17:30:21.268Z,46.40
2019-04-03T17:33:01.988Z,46.80
2019-04-03T17:35:37.750Z,46.90
2019-04-03T17:38:13.487Z,46.00
2019-04-03T17:41:05.051Z,46.40
2019-04-03T17:43:45.678Z,46.70
2019-04-03T17:46:27.346Z,46.90
2019-04-03T17:48:57.159Z,47.30
2019-04-03T17:51:35.517Z,47.40
2019-04-03T17:54:13.792Z,47.00
2019-04-03T17:56:43.661Z,47.00
2019-04-03T17:59:20.477Z,47.30
2019-04-03T18:01:53.488Z,47.60
2019-04-03T18:04:30.492Z,47.20
2019-04-03T18:07:05.179Z,47.20
2019-04-03T18:09:51.232Z,47.20
2019-04-03T18:12:27.691Z,47.30
2019-04-03T18:15:10.447Z,47.50
2019-04-03T18:18:07.269Z,47.60
2019-04-03T18:20:45.902Z,47.90
2019-04-03T18:23:32.121Z,48.20
2019-04-03T18:26:25.272Z,48.60
2019-04-03T18:29:06.379Z,49.10
2019-04-03T18:31:36.410Z,49.60
2019-04-03T18:34:09.711Z,50.30
2019-04-03T18:36:41.471Z,51.00
2019-04-03T18:39:12.796Z,51.10
2019-04-03T18:41:43.694Z,51.60
2019-04-03T18:44:21.915Z,52.00
2019-04-03T18:46:45.241Z,52.40
2019-04-03T18:49:17.191Z,52.60
2019-04-03T18:51:49.533Z,53.00
2019-04-03T18:54:19.323Z,53.80
2019-04-03T18:56:49.058Z,53.50
2019-04-03T18:59:18.792Z,53.60
2019-04-03T19:01:48.618Z,53.90
2019-04-03T19:04:19.702Z,54.20
2019-04-03T19:06:49.623Z,54.30
2019-04-03T19:09:21.231Z,54.20
2019-04-03T19:11:51.565Z,54.00
2019-04-03T19:14:27.640Z,54.10
2019-04-03T19:16:54.619Z,53.90
2019-04-03T19:19:24.851Z,54.00
2019-04-03T19:21:55.285Z,54.00
2019-04-03T19:24:25.257Z,54.10
2019-04-03T19:26:54.899Z,54.40
2019-04-03T19:29:24.579Z,54.70
2019-04-03T19:31:54.392Z,54.90
2019-04-03T19:34:24.178Z,55.40
2019-04-03T19:36:53.994Z,55.40
2019-04-03T19:39:23.768Z,55.60
2019-04-03T19:41:54.694Z,55.90
2019-04-03T19:44:24.552Z,56.40
2019-04-03T19:46:54.467Z,56.80
2019-04-03T19:49:27.459Z,56.50
2019-04-03T19:51:55.801Z,56.50
2019-04-03T19:54:25.728Z,56.90
2019-04-03T19:56:56.443Z,57.50
2019-04-03T19:59:29.968Z,56.90
2019-04-03T20:02:00.251Z,57.30
2019-04-03T20:04:30.156Z,57.50
2019-04-03T20:07:01.335Z,58.00
2019-04-03T20:09:32.638Z,58.40
2019-04-03T20:12:02.735Z,58.40
2019-04-03T20:14:33.759Z,58.60
2019-04-03T20:17:03.614Z,58.70
2019-04-03T20:19:33.626Z,59.10
2019-04-03T20:22:07.083Z,59.20
2019-04-03T20:24:37.382Z,59.30
2019-04-03T20:27:07.203Z,59.50
2019-04-03T20:29:37.027Z,59.70
2019-04-03T20:32:08.712Z,60.00
2019-04-03T20:34:39.199Z,60.20
2019-04-03T20:37:09.108Z,60.30
2019-04-03T20:39:38.997Z,61.50
2019-04-03T20:42:08.829Z,61.20
2019-04-03T20:44:39.169Z,62.30
2019-04-03T20:47:09.547Z,64.10
2019-04-03T20:49:43.522Z,64.70
2019-04-03T20:52:11.566Z,66.30
2019-04-03T20:54:41.735Z,68.00
2019-04-03T20:57:13.497Z,69.90
2019-04-03T20:59:52.530Z,71.90
2019-04-03T21:02:14.810Z,74.40
2019-04-03T21:04:44.937Z,76.40
2019-04-03T21:07:18.674Z,78.80
2019-04-03T21:09:48.520Z,81.20
2019-04-03T21:12:18.266Z,83.60
2019-04-03T21:14:48.046Z,86.50
2019-04-03T21:17:18.872Z,89.40
2019-04-03T21:19:52.020Z,90.30
2019-04-03T21:22:20.945Z,91.80
2019-04-03T21:24:50.675Z,91.70
2019-04-03T21:27:20.935Z,91.90
2019-04-03T21:29:50.711Z,92.50
2019-04-03T21:32:20.523Z,93.10
2019-04-03T21:34:50.359Z,93.00
2019-04-03T21:37:20.142Z,93.40
2019-04-03T21:39:49.926Z,93.80
2019-04-03T21:42:22.037Z,94.50
2019-04-03T21:44:51.923Z,95.10
2019-04-03T21:47:21.790Z,95.60
2019-04-03T21:49:51.663Z,97.30
2019-04-03T21:52:22.751Z,96.70
2019-04-03T21:54:54.082Z,97.20
2019-04-03T21:57:23.869Z,97.90
2019-04-03T21:59:58.523Z,98.60
2019-04-03T22:02:28.607Z,98.80
2019-04-03T22:04:58.856Z,99.60
2019-04-03T22:07:29.025Z,99.80
2019-04-03T22:09:59.980Z,99.90
2019-04-03T22:12:30.438Z,99.90
2019-04-03T22:15:03.391Z,99.90
2019-04-03T22:17:33.290Z,99.90
2019-04-03T22:20:03.065Z,99.90
2019-04-03T22:22:33.825Z,99.90
2019-04-03T22:25:08.562Z,99.90
2019-04-03T22:27:36.014Z,99.90
2019-04-03T22:30:06.390Z,99.90
2019-04-03T22:32:36.563Z,99.90
2019-04-03T22:35:07.081Z,99.90
2019-04-03T22:37:36.869Z,99.90
2019-04-03T22:40:09.757Z,99.90
2019-04-03T22:42:38.546Z,99.90
2019-04-03T22:45:09.878Z,99.90
2019-04-03T22:47:39.691Z,99.90
2019-04-03T22:50:09.558Z,99.90
2019-04-03T22:52:39.920Z,99.90
2019-04-03T22:55:12.986Z,99.90
2019-04-03T22:57:44.134Z,99.90
2019-04-03T23:00:14.951Z,99.90
2019-04-03T23:02:44.890Z,99.90
2019-04-03T23:05:16.767Z,99.90
2019-04-03T23:07:46.087Z,99.90
2019-04-03T23:10:17.921Z,99.90
2019-04-03T23:12:47.518Z,99.90
2019-04-03T23:15:17.326Z,99.90
2019-04-03T23:17:47.484Z,99.90
2019-04-03T23:20:17.993Z,99.90
2019-04-03T23:22:47.935Z,99.90
2019-04-03T23:25:19.600Z,99.90
2019-04-03T23:27:51.938Z,99.90
2019-04-03T23:30:25.870Z,99.90
2019-04-03T23:32:55.487Z,99.90
2019-04-03T23:35:26.383Z,99.90
2019-04-03T23:37:56.416Z,99.90
2019-04-03T23:40:27.191Z,99.90
2019-04-03T23:42:57.041Z,99.90
2019-04-03T23:45:32.637Z,99.90
2019-04-03T23:48:02.490Z,99.90
2019-04-03T23:50:34.258Z,99.90
2019-04-03T23:53:04.123Z,99.90
2019-04-03T23:55:36.092Z,99.90
2019-04-03T23:58:05.836Z,99.90
